ADDS METAR Data INFO
IDs: Format: Raw Decoded Include TAF

Data at: 2243 UTC 22 Aug 2017

KBML 222152Z AUTO 16006G15KT 10SM FEW060 BKN110 27/18 A2972 RMK AO2 SLP062 T02720183
KBML 222052Z AUTO 15006KT 10SM BKN050 28/19 A2974 RMK AO2 SLP066 T02780189 56030
KBML 221952Z AUTO 20009G15KT 170V230 10SM BKN060 29/17 A2975 RMK AO2 SLP068 T02890167
KBML 221852Z AUTO 21009KT 10SM BKN060 29/16 A2980 RMK AO2 SLP085 T02890156
KBML 221752Z AUTO VRB06G14KT 7SM FEW055 30/16 A2983 RMK AO2 SLP097 T03000156 10306 20150 58033
KBML 221652Z AUTO 21006KT 10SM CLR 29/16 A2987 RMK AO2 SLP109 T02890156
KBML 221552Z AUTO 16008KT 10SM FEW045 28/16 A2990 RMK AO2 SLP120 T02830156
KBML 221452Z AUTO 17007KT 10SM CLR 28/16 A2993 RMK AO2 SLP131 T02780156 58024
KBML 221352Z AUTO 20003KT 9SM CLR 24/16 A2997 RMK AO2 SLP144 T02440161
KBML 221252Z AUTO 00000KT 8SM CLR 19/15 A2999 RMK AO2 SLP153 T01940150
KBML 221152Z AUTO 00000KT 6SM BR CLR 15/13 A3001 RMK AO2 SLP160 T01500133 10150 20111 58005
KBML 221111Z AUTO 00000KT 3SM BR FEW002 14/12 A3002 RMK AO2 T01390122
KBML 221052Z AUTO 00000KT 3SM BR BKN002 13/12 A3001 RMK AO2 SLP162 T01280117
KBML 221050Z AUTO 00000KT 1 3/4SM BR BKN002 13/12 A3001 RMK AO2
KBML 221044Z AUTO 00000KT 1/2SM FG VV002 13/11 A3001 RMK AO2 T01280111
KBML 221001Z AUTO 00000KT 1/4SM FG VV001 11/10 A3001 RMK AO2 T01110100
KBML 220952Z AUTO 00000KT 1/2SM FG VV001 12/10 A3001 RMK AO2 SLP162 T01170100
KBML 220940Z AUTO 00000KT 3/4SM BR VV001 11/09 A3002 RMK AO2 T01110094
KBML 220917Z AUTO 00000KT 1 3/4SM BR OVC001 12/11 A3002 RMK AO2 T01220106
KBML 220910Z AUTO 00000KT 5SM BR OVC001 12/10 A3002 RMK AO2 T01170100
KBML 220852Z AUTO 00000KT 7SM BKN002 12/10 A3002 RMK AO2 SLP163 T01170100 56007
KBML 220848Z AUTO 00000KT 7SM SCT002 12/10 A3002 RMK AO2
KBML 220752Z AUTO 00000KT 5SM BR CLR 13/11 A3003 RMK AO2 SLP165 T01280111
KBML 220652Z AUTO 00000KT 5SM BR CLR 13/12 A3004 RMK AO2 SLP169 T01330117
KBML 220606Z AUTO 00000KT 5SM BR FEW003 13/12 A3004 RMK AO2 T01330117
KBML 220552Z AUTO 00000KT 3SM BR CLR 13/12 A3005 RMK AO2 SLP173 T01330117 10200 20128 58002
KBML 220452Z AUTO 00000KT 6SM BR CLR 14/12 A3007 RMK AO2 SLP179 T01440122 402720083
KBML 220352Z AUTO 00000KT 6SM BR CLR 15/13 A3006 RMK AO2 SLP177 T01500133
KBML 220252Z AUTO 00000KT 6SM BR CLR 16/13 A3006 RMK AO2 SLP175 T01560133 55000
KBML 220152Z AUTO 00000KT 5SM BR CLR 16/14 A3005 RMK AO2 SLP175 T01610144
KBML 220052Z AUTO 00000KT 7SM CLR 17/15 A3006 RMK AO2 SLP178 T01720150
KBML 212352Z AUTO 00000KT 7SM CLR 19/17 A3006 RMK AO2 SLP178 T01940167 10272 20194 56005
KBML 212252Z AUTO 00000KT 10SM CLR 24/18 A3006 RMK AO2 SLP179 T02390183
KBML 212152Z AUTO 00000KT 10SM CLR 27/14 A3006 RMK AO2 SLP178 T02670144
KBML 212052Z AUTO VRB04KT 10SM BKN055 27/14 A3007 RMK AO2 SLP183 T02720144 56008
KBML 211952Z AUTO VRB03KT 10SM SCT046 27/16 A3008 RMK AO2 SLP182 T02720156
KBML 211852Z AUTO VRB03KT 10SM FEW050 26/14 A3009 RMK AO2 SLP186 T02610144
KBML 211752Z AUTO 23008KT 9SM FEW044 27/15 A3010 RMK AO2 SLP190 T02720150 10272 20139 58012
KBML 211652Z AUTO VRB04KT 10SM FEW040 27/15 A3011 RMK AO2 SLP192 T02670150
KBML 211552Z AUTO VRB05KT 10SM FEW034 26/16 A3013 RMK AO2 SLP200 T02610156
KBML 211452Z AUTO VRB04KT 10SM CLR 24/15 A3013 RMK AO2 SLP202 T02440150 57010
KBML 211352Z AUTO 23003KT 10SM CLR 22/14 A3014 RMK AO2 SLP207 T02170144
KBML 211252Z AUTO 00000KT 10SM CLR 18/14 A3015 RMK AO2 SLP211 T01780139
KBML 211152Z AUTO 00000KT 9SM CLR 14/12 A3016 RMK AO2 SLP216 T01390117 10139 20083 50006
KBML 211052Z AUTO 00000KT 7SM CLR 11/09 A3017 RMK AO2 SLP217 T01060089